Archival Weather

Tokyo Intl

Tokyo, Japan (RJTT)

Report from: Sunday, March 19, 2023 2:00 AM JST
Current time: Sunday, May 19, 2024 5:21 PM JST

Current weather – Weather history – Daily summaries
Weather forecast

Temperature8.0°C (46.4°F)
Wind chill5.2°C (41.4°F)
Dew point5.0°C (41.0°F)
Winds 9 kts (4.6 m/s, 10.4 mph) North-Northeast (20°)
Visibility6.2 mi. (10 km)
Clouds Few clouds 1,500 ft. (457 m)
Ceiling: Broken clouds 10,000 ft. (3,048 m)
Altimeter29.91 in.Hg (1013 mB)
Relative humidity81 %
Density altitude-705 ft. (-215 m)
Remarks No significant changes expected in the next two hours
Flight conditions Visual Meteorological Conditions
Raw dataRJTT 181700Z 02009KT 9999 FEW015 BKN100 08/05 Q1013 NOSIG RMK 1CU015 7AC100 A2992
An error has occurred. This application may no longer respond until reloaded. Reload 🗙